createdAt,value
2019-05-25T00:00:30.089Z,2.07
2019-05-25T00:03:01.024Z,2.00
2019-05-25T00:05:31.734Z,1.90
2019-05-25T00:08:02.448Z,2.03
2019-05-25T00:10:34.063Z,2.27
2019-05-25T00:13:04.882Z,2.20
2019-05-25T00:15:41.674Z,2.60
2019-05-25T00:18:12.283Z,2.70
2019-05-25T00:20:42.988Z,2.47
2019-05-25T00:23:13.671Z,2.40
2019-05-25T00:25:44.260Z,2.23
2019-05-25T00:28:14.891Z,2.57
2019-05-25T00:30:47.493Z,2.70
2019-05-25T00:33:18.146Z,2.33
2019-05-25T00:35:48.800Z,2.50
2019-05-25T00:38:21.447Z,2.90
2019-05-25T00:40:52.023Z,3.23
2019-05-25T00:43:22.683Z,2.83
2019-05-25T00:45:53.347Z,2.97
2019-05-25T00:48:25.069Z,3.33
2019-05-25T00:50:55.805Z,3.23
2019-05-25T00:53:26.437Z,3.20
2019-05-25T00:55:57.131Z,3.17
2019-05-25T00:58:29.772Z,3.00
2019-05-25T01:01:02.456Z,3.07
2019-05-25T01:03:33.261Z,2.90
2019-05-25T01:06:03.925Z,4.00
2019-05-25T01:08:34.549Z,3.90
2019-05-25T01:11:05.185Z,3.80
2019-05-25T01:13:35.853Z,3.57
2019-05-25T01:16:07.236Z,3.87
2019-05-25T01:18:37.877Z,3.93
2019-05-25T01:21:08.512Z,3.70
2019-05-25T01:23:39.127Z,4.03
2019-05-25T01:26:10.913Z,3.50
2019-05-25T01:28:41.624Z,4.13
2019-05-25T01:31:17.505Z,4.07
2019-05-25T01:33:48.166Z,4.60
2019-05-25T01:36:20.890Z,4.23
2019-05-25T01:38:53.567Z,4.60
2019-05-25T01:41:24.305Z,4.43
2019-05-25T01:43:54.840Z,4.80
2019-05-25T01:46:25.501Z,5.27
2019-05-25T01:49:02.928Z,4.77
2019-05-25T01:51:41.582Z,4.87
2019-05-25T01:54:12.317Z,4.80
2019-05-25T01:56:42.979Z,4.90
2019-05-25T01:59:13.643Z,6.40
2019-05-25T02:01:49.952Z,6.23
2019-05-25T02:04:20.560Z,5.10
2019-05-25T02:06:51.053Z,5.87
2019-05-25T02:09:25.390Z,5.40
2019-05-25T02:11:55.960Z,5.87
2019-05-25T02:14:26.629Z,5.23
2019-05-25T02:16:57.406Z,5.83
2019-05-25T02:19:31.873Z,5.17
2019-05-25T02:22:02.764Z,5.10
2019-05-25T02:24:34.390Z,5.57
2019-05-25T02:27:11.906Z,5.90
2019-05-25T02:29:42.613Z,6.53
2019-05-25T02:32:13.301Z,6.13
2019-05-25T02:34:43.881Z,5.93
2019-05-25T02:37:15.471Z,6.30
2019-05-25T02:39:46.256Z,6.23
2019-05-25T02:42:16.944Z,6.33
2019-05-25T02:44:47.599Z,6.33
2019-05-25T02:47:18.278Z,6.47
2019-05-25T02:49:48.961Z,6.60
2019-05-25T02:52:19.637Z,7.00
2019-05-25T02:54:50.320Z,6.77
2019-05-25T02:57:21.012Z,7.73
2019-05-25T02:59:51.679Z,7.37
2019-05-25T03:02:22.402Z,7.30
2019-05-25T03:04:54.294Z,7.27
2019-05-25T03:07:25.276Z,7.40
2019-05-25T03:09:56.529Z,7.50
2019-05-25T03:12:29.811Z,7.33
2019-05-25T03:15:00.558Z,7.23
2019-05-25T03:17:33.200Z,7.13
2019-05-25T03:20:04.352Z,7.67
2019-05-25T03:22:36.039Z,7.50
2019-05-25T03:25:07.234Z,7.30
2019-05-25T03:27:42.881Z,7.30
2019-05-25T03:30:14.843Z,7.53
2019-05-25T03:32:45.555Z,7.67
2019-05-25T03:35:17.339Z,7.23
2019-05-25T03:37:52.162Z,8.07
2019-05-25T03:40:23.743Z,9.47
2019-05-25T03:42:54.583Z,8.10
2019-05-25T03:45:32.466Z,8.00
2019-05-25T03:48:03.145Z,7.97
2019-05-25T03:50:33.752Z,8.00
2019-05-25T03:53:05.457Z,8.77
2019-05-25T03:55:36.206Z,7.80
2019-05-25T03:58:06.852Z,8.17
2019-05-25T04:00:37.887Z,8.40
2019-05-25T04:03:08.586Z,8.33
2019-05-25T04:05:39.264Z,8.73
2019-05-25T04:08:09.968Z,8.47
2019-05-25T04:10:41.741Z,8.73
2019-05-25T04:13:12.420Z,8.43
2019-05-25T04:15:47.715Z,8.17
2019-05-25T04:18:18.332Z,8.00
2019-05-25T04:20:49.116Z,8.07
2019-05-25T04:23:19.793Z,8.03
2019-05-25T04:25:54.440Z,7.70
2019-05-25T04:28:25.018Z,8.60
2019-05-25T04:30:56.695Z,7.53
2019-05-25T04:33:27.446Z,7.17
2019-05-25T04:36:03.904Z,7.93
2019-05-25T04:38:34.399Z,8.47
2019-05-25T04:41:07.026Z,8.37
2019-05-25T04:43:37.750Z,8.10
2019-05-25T04:46:09.359Z,7.63
2019-05-25T04:48:39.990Z,8.27
2019-05-25T04:51:10.707Z,7.63
2019-05-25T04:53:41.280Z,7.57
2019-05-25T04:56:12.007Z,8.30
2019-05-25T04:58:42.798Z,8.10
2019-05-25T05:01:13.641Z,8.13
2019-05-25T05:03:48.716Z,8.27
2019-05-25T05:06:19.315Z,7.77
2019-05-25T05:08:53.164Z,7.80
2019-05-25T05:11:31.765Z,8.77
2019-05-25T05:14:13.634Z,8.50
2019-05-25T05:16:44.338Z,8.10
2019-05-25T05:19:14.972Z,8.80
2019-05-25T05:21:45.577Z,8.20
2019-05-25T05:24:22.204Z,8.07
2019-05-25T05:26:56.131Z,8.47
2019-05-25T05:29:25.180Z,8.53
2019-05-25T05:31:55.848Z,8.77
2019-05-25T05:34:26.439Z,8.73
2019-05-25T05:36:57.120Z,8.40
2019-05-25T05:39:28.131Z,8.43
2019-05-25T05:41:59.750Z,8.57
2019-05-25T05:44:32.719Z,8.40
2019-05-25T05:47:03.710Z,7.23
2019-05-25T05:49:34.398Z,7.13
2019-05-25T05:52:05.179Z,7.43
2019-05-25T05:54:37.372Z,7.40
2019-05-25T05:57:12.367Z,7.37
2019-05-25T05:59:40.574Z,6.70
2019-05-25T06:02:11.395Z,7.27
2019-05-25T06:04:42.177Z,6.80
2019-05-25T06:07:12.946Z,7.10
2019-05-25T06:09:43.801Z,6.17
2019-05-25T06:12:14.680Z,6.23
2019-05-25T06:14:46.362Z,6.73
2019-05-25T06:17:17.118Z,6.20
2019-05-25T06:19:47.893Z,5.97
2019-05-25T06:22:18.679Z,5.60
2019-05-25T06:24:50.390Z,5.43
2019-05-25T06:27:27.310Z,5.20
2019-05-25T06:29:54.578Z,4.60
2019-05-25T06:32:25.376Z,5.07
2019-05-25T06:35:01.980Z,4.40
2019-05-25T06:37:32.677Z,4.30
2019-05-25T06:40:03.390Z,4.47
2019-05-25T06:42:35.211Z,4.40
2019-05-25T06:45:07.161Z,3.97
2019-05-25T06:47:42.748Z,3.97
2019-05-25T06:50:13.587Z,4.03
2019-05-25T06:52:45.223Z,3.87
2019-05-25T06:55:17.702Z,3.93
2019-05-25T06:57:48.483Z,4.20
2019-05-25T07:00:19.309Z,4.10
2019-05-25T07:02:52.135Z,3.77
2019-05-25T07:05:22.929Z,3.43
2019-05-25T07:07:54.713Z,3.47
2019-05-25T07:10:25.790Z,3.50
2019-05-25T07:12:56.534Z,4.20
2019-05-25T07:15:27.277Z,3.60
2019-05-25T07:17:57.974Z,3.43
2019-05-25T07:20:28.735Z,4.70
2019-05-25T07:22:59.473Z,4.23
2019-05-25T07:25:30.249Z,4.17
2019-05-25T07:28:00.944Z,3.60
2019-05-25T07:30:31.605Z,3.47
2019-05-25T07:33:02.264Z,3.87
2019-05-25T07:35:34.853Z,3.90
2019-05-25T07:38:05.697Z,3.63
2019-05-25T07:40:36.282Z,3.10
2019-05-25T07:43:06.853Z,3.10
2019-05-25T07:45:39.475Z,3.07
2019-05-25T07:48:10.137Z,3.30
2019-05-25T07:50:40.927Z,3.20
2019-05-25T07:53:11.513Z,2.90
2019-05-25T07:55:43.085Z,3.10
2019-05-25T07:58:18.111Z,3.17
2019-05-25T08:00:46.989Z,2.97
2019-05-25T08:03:17.647Z,3.00
2019-05-25T08:05:48.378Z,3.70
2019-05-25T08:08:19.826Z,4.53
2019-05-25T08:10:50.489Z,4.00
2019-05-25T08:13:23.278Z,4.30
2019-05-25T08:15:53.874Z,4.93
2019-05-25T08:18:24.555Z,3.90
2019-05-25T08:20:55.298Z,4.97
2019-05-25T08:23:26.066Z,4.80
2019-05-25T08:26:00.702Z,4.93
2019-05-25T08:28:33.062Z,6.07
2019-05-25T08:31:03.987Z,6.83
2019-05-25T08:33:34.871Z,6.50
2019-05-25T08:36:05.625Z,6.13
2019-05-25T08:38:36.241Z,6.97
2019-05-25T08:41:09.265Z,7.20
2019-05-25T08:43:41.045Z,6.40
2019-05-25T08:46:12.691Z,5.73
2019-05-25T08:48:43.418Z,5.93
2019-05-25T08:51:14.004Z,5.60
2019-05-25T08:53:46.618Z,5.80
2019-05-25T08:56:17.021Z,7.27
2019-05-25T08:58:48.782Z,7.03
2019-05-25T09:01:22.735Z,7.30
2019-05-25T09:03:53.437Z,8.70
2019-05-25T09:06:24.135Z,8.80
2019-05-25T09:08:55.131Z,9.30
2019-05-25T09:11:26.940Z,9.63
2019-05-25T09:13:57.622Z,9.13
2019-05-25T09:16:32.783Z,8.27
2019-05-25T09:19:03.439Z,8.03
2019-05-25T09:21:37.307Z,9.30
2019-05-25T09:24:07.989Z,9.27
2019-05-25T09:26:38.934Z,9.30
2019-05-25T09:29:10.865Z,9.83
2019-05-25T09:31:41.578Z,7.87
2019-05-25T09:34:12.359Z,8.10
2019-05-25T09:36:43.198Z,8.47
2019-05-25T09:39:13.838Z,8.23
2019-05-25T09:41:44.482Z,8.27
2019-05-25T09:44:15.064Z,9.20
2019-05-25T09:46:45.757Z,9.30
2019-05-25T09:49:16.451Z,9.57
2019-05-25T09:51:48.688Z,8.73
2019-05-25T09:54:19.849Z,9.60
2019-05-25T09:56:58.625Z,9.23
2019-05-25T09:59:30.588Z,9.57
2019-05-25T10:02:02.293Z,11.37
2019-05-25T10:04:36.019Z,10.60
2019-05-25T10:07:07.188Z,11.07
2019-05-25T10:09:40.084Z,9.87
2019-05-25T10:12:10.674Z,9.23
2019-05-25T10:14:43.673Z,9.70
2019-05-25T10:17:14.447Z,9.23
2019-05-25T10:19:45.052Z,8.00
2019-05-25T10:22:16.022Z,7.63
2019-05-25T10:24:46.943Z,9.47
2019-05-25T10:27:19.755Z,9.80
2019-05-25T10:29:50.543Z,8.87
2019-05-25T10:32:21.391Z,7.97
2019-05-25T10:34:52.162Z,7.50
2019-05-25T10:37:23.094Z,7.57
2019-05-25T10:39:53.904Z,7.87
2019-05-25T10:42:24.748Z,8.27
2019-05-25T10:44:55.575Z,8.10
2019-05-25T10:47:26.361Z,8.30
2019-05-25T10:49:57.208Z,7.50
2019-05-25T10:52:28.016Z,6.90
2019-05-25T10:54:58.668Z,6.10
2019-05-25T10:57:29.322Z,6.30
2019-05-25T10:59:59.911Z,6.00
2019-05-25T11:02:30.927Z,6.57
2019-05-25T11:05:01.584Z,6.60
2019-05-25T11:07:33.254Z,6.87
2019-05-25T11:10:04.231Z,7.07
2019-05-25T11:12:34.920Z,7.10
2019-05-25T11:15:06.755Z,7.13
2019-05-25T11:17:37.516Z,6.10
2019-05-25T11:20:08.858Z,7.50
2019-05-25T11:22:40.482Z,8.17
2019-05-25T11:25:11.580Z,8.53
2019-05-25T11:27:42.363Z,7.57
2019-05-25T11:30:13.252Z,6.87
2019-05-25T11:32:44.492Z,6.80
2019-05-25T11:35:17.947Z,6.37
2019-05-25T11:37:48.731Z,7.80
2019-05-25T11:40:19.599Z,7.63
2019-05-25T11:42:50.313Z,7.87
2019-05-25T11:45:21.593Z,7.17
2019-05-25T11:47:53.190Z,6.93
2019-05-25T11:50:25.296Z,7.10
2019-05-25T11:53:05.537Z,8.63
2019-05-25T11:55:38.177Z,8.17
2019-05-25T11:58:15.906Z,8.67
2019-05-25T12:00:46.605Z,7.17
2019-05-25T12:03:18.340Z,6.73
2019-05-25T12:05:52.915Z,10.17
2019-05-25T12:08:23.525Z,6.27
2019-05-25T12:10:57.688Z,4.63
2019-05-25T12:13:31.935Z,5.67
2019-05-25T12:16:01.678Z,4.50
2019-05-25T12:18:32.351Z,5.40
2019-05-25T12:21:03.037Z,5.57
2019-05-25T12:23:33.720Z,5.40
2019-05-25T12:26:04.523Z,5.47
2019-05-25T12:28:35.268Z,5.73
2019-05-25T12:31:06.121Z,5.70
2019-05-25T12:33:37.047Z,6.27
2019-05-25T12:36:08.472Z,6.00
2019-05-25T12:38:39.251Z,4.90
2019-05-25T12:41:10.014Z,4.83
2019-05-25T12:43:40.908Z,5.27
2019-05-25T12:46:11.671Z,7.17
2019-05-25T12:48:42.420Z,6.00
2019-05-25T12:51:13.197Z,6.40
2019-05-25T12:53:43.963Z,5.10
2019-05-25T12:56:15.632Z,5.00
2019-05-25T12:58:46.400Z,5.07
2019-05-25T13:01:17.180Z,5.30
2019-05-25T13:03:47.918Z,5.40
2019-05-25T13:06:18.652Z,4.67
2019-05-25T13:08:49.394Z,5.23
2019-05-25T13:11:20.116Z,4.50
2019-05-25T13:13:50.913Z,4.93
2019-05-25T13:16:21.682Z,4.37
2019-05-25T13:18:52.505Z,4.30
2019-05-25T13:21:23.262Z,4.50
2019-05-25T13:23:54.047Z,4.00
2019-05-25T13:26:24.822Z,4.50
2019-05-25T13:28:55.602Z,4.60
2019-05-25T13:31:26.353Z,5.20
2019-05-25T13:33:57.120Z,5.30
2019-05-25T13:36:27.866Z,5.20
2019-05-25T13:38:58.746Z,5.03
2019-05-25T13:41:29.475Z,4.30
2019-05-25T13:44:00.279Z,5.23
2019-05-25T13:46:30.961Z,5.07
2019-05-25T13:49:01.726Z,4.37
2019-05-25T13:51:32.560Z,4.30
2019-05-25T13:54:03.302Z,4.10
2019-05-25T13:56:34.060Z,4.90
2019-05-25T13:59:04.812Z,4.90
2019-05-25T14:01:35.596Z,3.83
2019-05-25T14:04:06.373Z,3.80
2019-05-25T14:06:37.129Z,3.70
2019-05-25T14:09:08.957Z,4.23
2019-05-25T14:11:39.721Z,3.20
2019-05-25T14:14:11.507Z,4.47
2019-05-25T14:16:43.291Z,3.50
2019-05-25T14:19:14.510Z,4.20
2019-05-25T14:21:45.287Z,4.10
2019-05-25T14:24:16.120Z,3.77
2019-05-25T14:26:48.183Z,4.20
2019-05-25T14:29:18.888Z,3.67
2019-05-25T14:31:49.807Z,3.70
2019-05-25T14:34:20.563Z,3.50
2019-05-25T14:36:51.197Z,2.77
2019-05-25T14:39:21.987Z,2.80
2019-05-25T14:41:52.770Z,3.30
2019-05-25T14:44:25.436Z,3.13
2019-05-25T14:46:56.209Z,3.60
2019-05-25T14:49:27.048Z,3.67
2019-05-25T14:51:58.714Z,3.00
2019-05-25T14:54:29.462Z,3.03
2019-05-25T14:57:00.176Z,3.53
2019-05-25T14:59:30.947Z,4.00
2019-05-25T15:02:03.055Z,3.63
2019-05-25T15:04:34.199Z,3.03
2019-05-25T15:07:05.150Z,2.90
2019-05-25T15:09:36.095Z,3.30
2019-05-25T15:12:06.849Z,3.10
2019-05-25T15:14:37.631Z,3.13
2019-05-25T15:17:09.362Z,2.80
2019-05-25T15:19:40.172Z,3.10
2019-05-25T15:22:11.267Z,3.37
2019-05-25T15:24:42.098Z,3.10
2019-05-25T15:27:12.875Z,3.00
2019-05-25T15:29:43.695Z,3.20
2019-05-25T15:32:20.159Z,3.20
2019-05-25T15:34:46.986Z,2.90
2019-05-25T15:37:17.959Z,2.77
2019-05-25T15:39:48.843Z,2.77
2019-05-25T15:42:19.672Z,3.50
2019-05-25T15:44:52.360Z,3.50
2019-05-25T15:47:23.949Z,3.30
2019-05-25T15:49:54.704Z,2.47
2019-05-25T15:52:25.320Z,3.50
2019-05-25T15:54:56.209Z,4.43
2019-05-25T15:57:29.108Z,3.93
2019-05-25T15:59:59.773Z,3.10
2019-05-25T16:02:36.693Z,3.10
2019-05-25T16:05:03.020Z,2.90
2019-05-25T16:07:36.419Z,3.20
2019-05-25T16:10:07.437Z,5.10
2019-05-25T16:12:38.136Z,3.93
2019-05-25T16:15:09.801Z,2.90
2019-05-25T16:17:43.699Z,2.63
2019-05-25T16:20:18.643Z,2.53
2019-05-25T16:22:49.287Z,2.23
2019-05-25T16:25:19.935Z,2.10
2019-05-25T16:27:50.629Z,2.37
2019-05-25T16:30:22.488Z,2.80
2019-05-25T16:35:27.644Z,3.00
2019-05-25T16:37:07.709Z,3.53
2019-05-25T16:37:58.519Z,2.73
2019-05-25T16:40:29.354Z,2.83
2019-05-25T16:43:00.254Z,2.60
2019-05-25T16:45:31.009Z,3.00
2019-05-25T16:48:01.712Z,3.33
2019-05-25T16:50:32.647Z,3.00
2019-05-25T16:53:03.454Z,2.90
2019-05-25T16:55:36.377Z,2.40
2019-05-25T16:58:09.024Z,2.67
2019-05-25T17:00:39.620Z,2.80
2019-05-25T17:03:24.850Z,2.67
2019-05-25T17:05:42.652Z,2.60
2019-05-25T17:08:14.394Z,3.10
2019-05-25T17:10:44.988Z,2.70
2019-05-25T17:13:15.672Z,2.77
2019-05-25T17:15:46.363Z,2.93
2019-05-25T17:18:16.988Z,2.87
2019-05-25T17:20:48.670Z,2.80
2019-05-25T17:23:19.293Z,2.60
2019-05-25T17:25:50.021Z,2.47
2019-05-25T17:28:22.736Z,2.80
2019-05-25T17:30:54.464Z,2.70
2019-05-25T17:33:44.553Z,3.30
2019-05-25T17:36:04.085Z,3.13
2019-05-25T17:38:34.701Z,3.03
2019-05-25T17:41:06.431Z,3.20
2019-05-25T17:43:37.093Z,3.13
2019-05-25T17:46:09.749Z,3.40
2019-05-25T17:48:40.412Z,3.53
2019-05-25T17:51:11.149Z,3.37
2019-05-25T17:53:41.813Z,3.53
2019-05-25T17:56:12.585Z,3.57
2019-05-25T17:58:44.296Z,3.30
2019-05-25T18:01:15.047Z,3.50
2019-05-25T18:04:05.068Z,3.20
2019-05-25T18:06:20.430Z,3.40
2019-05-25T18:08:51.068Z,4.17
2019-05-25T18:11:21.765Z,3.53
2019-05-25T18:13:52.417Z,3.73
2019-05-25T18:16:23.087Z,3.53
2019-05-25T18:18:54.745Z,3.27
2019-05-25T18:21:25.349Z,3.43
2019-05-25T18:23:55.962Z,2.70
2019-05-25T18:26:29.671Z,3.30
2019-05-25T18:29:00.373Z,4.40
2019-05-25T18:31:32.070Z,7.63
2019-05-25T18:34:21.598Z,8.40
2019-05-25T18:36:42.722Z,4.00
2019-05-25T18:39:14.909Z,4.83
2019-05-25T18:41:46.047Z,4.40
2019-05-25T18:44:16.800Z,3.30
2019-05-25T18:46:47.411Z,2.67
2019-05-25T18:49:18.149Z,2.90
2019-05-25T18:51:54.022Z,3.57
2019-05-25T18:54:24.638Z,3.03
2019-05-25T18:56:55.329Z,3.20
2019-05-25T18:59:27.955Z,2.57
2019-05-25T19:01:58.973Z,2.70
2019-05-25T19:04:42.996Z,3.20
2019-05-25T19:07:11.550Z,3.07
2019-05-25T19:09:42.206Z,3.10
2019-05-25T19:12:25.910Z,3.23
2019-05-25T19:14:57.508Z,3.03
2019-05-25T19:17:28.448Z,3.27
2019-05-25T19:19:59.154Z,3.17
2019-05-25T19:22:30.952Z,2.97
2019-05-25T19:25:01.789Z,2.83
2019-05-25T19:27:33.033Z,3.30
2019-05-25T19:30:05.714Z,3.10
2019-05-25T19:32:36.662Z,3.07
2019-05-25T19:35:07.952Z,2.63
2019-05-25T19:37:42.309Z,2.80
2019-05-25T19:40:12.622Z,3.43
2019-05-25T19:42:49.780Z,3.20
2019-05-25T19:45:24.727Z,3.30
2019-05-25T19:48:02.185Z,3.10
2019-05-25T19:50:37.097Z,2.80
2019-05-25T19:53:11.217Z,2.77
2019-05-25T19:55:41.946Z,3.10
2019-05-25T19:58:12.590Z,3.20
2019-05-25T20:00:43.326Z,3.27
2019-05-25T20:03:19.887Z,2.90
2019-05-25T20:05:50.551Z,3.30
2019-05-25T20:08:21.143Z,3.30
2019-05-25T20:10:55.345Z,3.27
2019-05-25T20:13:24.165Z,3.10
2019-05-25T20:15:54.895Z,3.30
2019-05-25T20:18:25.757Z,2.93
2019-05-25T20:20:56.385Z,3.00
2019-05-25T20:23:27.111Z,2.90
2019-05-25T20:25:57.751Z,3.07
2019-05-25T20:28:37.383Z,3.13
2019-05-25T20:31:09.306Z,2.90
2019-05-25T20:33:39.913Z,3.20
2019-05-25T20:36:15.611Z,3.60
2019-05-25T20:38:47.363Z,3.23
2019-05-25T20:41:18.149Z,3.63
2019-05-25T20:43:48.785Z,4.13
2019-05-25T20:46:19.783Z,3.67
2019-05-25T20:48:50.423Z,3.93
2019-05-25T20:51:21.205Z,3.73
2019-05-25T20:53:51.787Z,3.63
2019-05-25T20:56:23.518Z,3.50
2019-05-25T20:58:54.184Z,3.70
2019-05-25T21:01:24.896Z,3.60
2019-05-25T21:03:55.636Z,3.50
2019-05-25T21:06:26.313Z,3.83
2019-05-25T21:08:58.012Z,4.50
2019-05-25T21:11:28.708Z,4.10
2019-05-25T21:13:59.269Z,3.50
2019-05-25T21:16:29.906Z,3.93
2019-05-25T21:19:02.972Z,3.50
2019-05-25T21:21:33.932Z,3.63
2019-05-25T21:24:04.755Z,4.30
2019-05-25T21:26:36.452Z,4.17
2019-05-25T21:29:07.020Z,4.30
2019-05-25T21:31:37.630Z,3.87
2019-05-25T21:34:08.209Z,4.30
2019-05-25T21:36:38.881Z,4.43
2019-05-25T21:39:09.626Z,4.10
2019-05-25T21:41:40.290Z,3.87
2019-05-25T21:44:11.990Z,4.53
2019-05-25T21:46:42.661Z,4.33
2019-05-25T21:49:14.380Z,4.00
2019-05-25T21:51:45.979Z,4.10
2019-05-25T21:54:17.638Z,4.37
2019-05-25T21:56:49.388Z,4.30
2019-05-25T21:59:23.904Z,4.03
2019-05-25T22:01:55.186Z,4.43
2019-05-25T22:04:29.087Z,4.43
2019-05-25T22:06:59.762Z,4.63
2019-05-25T22:09:30.614Z,4.43
2019-05-25T22:12:06.743Z,4.60
2019-05-25T22:14:38.669Z,4.30
2019-05-25T22:17:09.390Z,4.60
2019-05-25T22:19:40.285Z,4.43
2019-05-25T22:22:11.134Z,4.27
2019-05-25T22:24:43.570Z,4.40
2019-05-25T22:27:14.358Z,4.20
2019-05-25T22:29:47.392Z,4.73
2019-05-25T22:32:18.249Z,4.93
2019-05-25T22:34:50.757Z,6.00
2019-05-25T22:37:21.395Z,6.87
2019-05-25T22:39:53.156Z,7.20
2019-05-25T22:42:24.054Z,7.13
2019-05-25T22:44:54.689Z,6.97
2019-05-25T22:47:25.438Z,7.10
2019-05-25T22:49:56.244Z,6.27
2019-05-25T22:52:28.036Z,5.67
2019-05-25T22:54:58.632Z,6.17
2019-05-25T22:57:29.448Z,6.20
2019-05-25T23:00:09.049Z,5.47
2019-05-25T23:02:45.393Z,4.90
2019-05-25T23:05:16.216Z,5.40
2019-05-25T23:07:46.825Z,5.10
2019-05-25T23:10:19.473Z,5.40
2019-05-25T23:12:50.155Z,5.40
2019-05-25T23:15:21.922Z,5.40
2019-05-25T23:17:53.621Z,5.37
2019-05-25T23:20:24.386Z,5.53
2019-05-25T23:22:55.159Z,5.50
2019-05-25T23:25:30.801Z,5.23
2019-05-25T23:28:02.532Z,5.30
2019-05-25T23:30:34.189Z,6.00
2019-05-25T23:33:05.871Z,5.30
2019-05-25T23:35:39.948Z,6.47
2019-05-25T23:38:10.717Z,6.27
2019-05-25T23:40:51.649Z,5.93
2019-05-25T23:43:22.234Z,7.83
2019-05-25T23:45:52.901Z,7.70
2019-05-25T23:48:23.683Z,7.90
2019-05-25T23:50:55.036Z,7.63
2019-05-25T23:53:25.552Z,8.60
2019-05-25T23:55:56.315Z,7.90
2019-05-25T23:58:26.963Z,7.50
